createdAt,value
2018-10-12T00:01:31.397Z,20.60
2018-10-12T00:03:58.905Z,20.70
2018-10-12T00:06:26.362Z,20.50
2018-10-12T00:08:53.794Z,20.30
2018-10-12T00:11:21.282Z,19.80
2018-10-12T00:13:48.813Z,19.40
2018-10-12T00:16:16.293Z,18.90
2018-10-12T00:18:43.749Z,18.80
2018-10-12T00:21:11.386Z,19.50
2018-10-12T00:23:38.919Z,20.10
2018-10-12T00:26:06.418Z,20.60
2018-10-12T00:28:33.947Z,20.80
2018-10-12T00:31:01.366Z,20.90
2018-10-12T00:33:28.814Z,21.00
2018-10-12T00:35:56.413Z,20.90
2018-10-12T00:38:23.875Z,21.00
2018-10-12T00:40:51.353Z,20.20
2018-10-12T00:43:18.954Z,20.20
2018-10-12T00:45:46.502Z,19.90
2018-10-12T00:48:14.096Z,19.80
2018-10-12T00:50:41.577Z,20.00
2018-10-12T00:53:09.121Z,19.20
2018-10-12T00:55:36.614Z,19.30
2018-10-12T00:58:04.150Z,19.20
2018-10-12T01:00:31.608Z,19.40
2018-10-12T01:02:59.089Z,19.50
2018-10-12T01:05:26.550Z,19.60
2018-10-12T01:07:53.987Z,19.60
2018-10-12T01:10:21.442Z,19.90
2018-10-12T01:12:49.051Z,20.30
2018-10-12T01:15:16.600Z,20.60
2018-10-12T01:17:44.136Z,20.80
2018-10-12T01:20:11.719Z,20.90
2018-10-12T01:22:39.230Z,20.80
2018-10-12T01:25:07.639Z,20.60
2018-10-12T01:27:35.217Z,20.90
2018-10-12T01:30:02.974Z,20.80
2018-10-12T01:32:36.090Z,20.90
2018-10-12T01:35:03.590Z,21.10
2018-10-12T01:37:31.223Z,21.20
2018-10-12T01:39:58.726Z,20.90
2018-10-12T01:42:26.155Z,19.80
2018-10-12T01:44:53.625Z,18.80
2018-10-12T01:47:21.158Z,18.30
2018-10-12T01:49:48.670Z,18.10
2018-10-12T01:52:16.225Z,18.30
2018-10-12T01:54:43.818Z,18.40
2018-10-12T01:57:12.094Z,18.40
2018-10-12T01:59:39.650Z,18.50
2018-10-12T02:02:07.230Z,18.90
2018-10-12T02:04:34.765Z,19.00
2018-10-12T02:07:02.970Z,19.00
2018-10-12T02:09:30.410Z,19.00
2018-10-12T02:11:58.015Z,19.20
2018-10-12T02:14:25.645Z,19.20
2018-10-12T02:16:53.194Z,18.80
2018-10-12T02:19:20.658Z,18.80
2018-10-12T02:21:48.116Z,18.70
2018-10-12T02:24:15.694Z,19.10
2018-10-12T02:26:43.426Z,19.30
2018-10-12T02:29:10.943Z,19.10
2018-10-12T02:31:38.383Z,19.30
2018-10-12T02:34:05.966Z,19.70
2018-10-12T02:36:33.436Z,19.20
2018-10-12T02:39:01.066Z,19.20
2018-10-12T02:41:28.482Z,19.30
2018-10-12T02:43:55.950Z,19.30
2018-10-12T02:46:23.418Z,19.40
2018-10-12T02:48:50.911Z,18.80
2018-10-12T02:51:18.438Z,18.30
2018-10-12T02:53:45.995Z,19.10
2018-10-12T02:56:19.320Z,19.70
2018-10-12T02:58:46.872Z,19.50
2018-10-12T03:01:14.306Z,19.60
2018-10-12T03:03:41.758Z,20.10
2018-10-12T03:06:09.334Z,20.40
2018-10-12T03:08:36.826Z,20.20
2018-10-12T03:11:04.423Z,20.00
2018-10-12T03:13:32.161Z,19.80
2018-10-12T03:15:59.597Z,19.70
2018-10-12T03:18:27.118Z,19.60
2018-10-12T03:20:54.541Z,19.40
2018-10-12T03:23:22.006Z,20.00
2018-10-12T03:25:49.459Z,20.30
2018-10-12T03:28:27.649Z,19.90
2018-10-12T03:30:55.981Z,19.40
2018-10-12T03:33:23.514Z,19.70
2018-10-12T03:35:51.175Z,20.00
2018-10-12T03:38:18.637Z,19.70
2018-10-12T03:40:46.157Z,19.90
2018-10-12T03:43:13.682Z,20.10
2018-10-12T03:45:41.959Z,20.20
2018-10-12T03:48:09.439Z,20.30
2018-10-12T03:50:36.998Z,20.30
2018-10-12T03:53:04.478Z,19.50
2018-10-12T03:55:31.975Z,19.30
2018-10-12T03:57:59.402Z,19.80
2018-10-12T04:00:27.084Z,19.80
2018-10-12T04:02:54.619Z,19.40
2018-10-12T04:05:22.084Z,18.60
2018-10-12T04:07:49.667Z,19.10
2018-10-12T04:10:17.106Z,19.30
2018-10-12T04:12:44.600Z,18.80
2018-10-12T04:15:12.014Z,18.50
2018-10-12T04:17:39.522Z,18.00
2018-10-12T04:20:07.088Z,17.60
2018-10-12T04:22:34.603Z,17.70
2018-10-12T04:25:02.163Z,17.70
2018-10-12T04:27:29.621Z,18.20
2018-10-12T04:29:57.138Z,18.90
2018-10-12T04:32:24.625Z,19.20
2018-10-12T04:34:52.043Z,19.40
2018-10-12T04:37:19.521Z,19.20
2018-10-12T04:39:56.702Z,19.50
2018-10-12T04:42:24.199Z,19.70
2018-10-12T04:44:51.677Z,20.00
2018-10-12T04:47:20.103Z,19.90
2018-10-12T04:49:47.622Z,19.20
2018-10-12T04:52:15.201Z,19.10
2018-10-12T04:54:42.955Z,18.30
2018-10-12T04:57:10.418Z,18.40
2018-10-12T04:59:37.905Z,19.10
2018-10-12T05:02:05.447Z,19.80
2018-10-12T05:04:32.991Z,20.00
2018-10-12T05:07:00.555Z,20.30
2018-10-12T05:09:28.058Z,20.40
2018-10-12T05:11:55.648Z,19.90
2018-10-12T05:14:23.087Z,19.40
2018-10-12T05:16:50.635Z,19.70
2018-10-12T05:19:18.119Z,20.10
2018-10-12T05:21:45.680Z,20.40
2018-10-12T05:24:13.074Z,20.60
2018-10-12T05:26:40.603Z,20.70
2018-10-12T05:29:08.137Z,20.80
2018-10-12T05:31:35.682Z,20.90
2018-10-12T05:34:03.166Z,21.00
2018-10-12T05:36:30.606Z,21.00
2018-10-12T05:38:58.082Z,20.90
2018-10-12T05:41:25.602Z,20.70
2018-10-12T05:43:53.090Z,20.50
2018-10-12T05:46:20.505Z,20.10
2018-10-12T05:48:59.255Z,20.00
2018-10-12T05:51:26.787Z,19.60
2018-10-12T05:53:54.426Z,19.10
2018-10-12T05:56:25.065Z,19.10
2018-10-12T05:58:53.134Z,18.70
2018-10-12T06:01:20.672Z,18.30
2018-10-12T06:03:48.258Z,18.10
2018-10-12T06:06:15.744Z,17.70
2018-10-12T06:08:43.289Z,17.40
2018-10-12T06:11:10.933Z,17.20
2018-10-12T06:13:38.434Z,17.60
2018-10-12T06:16:06.037Z,18.10
2018-10-12T06:18:33.567Z,18.40
2018-10-12T06:21:01.037Z,18.30
2018-10-12T06:23:28.536Z,17.70
2018-10-12T06:25:55.990Z,17.70
2018-10-12T06:28:23.478Z,18.30
2018-10-12T06:30:50.950Z,18.80
2018-10-12T06:33:18.414Z,19.20
2018-10-12T06:35:45.844Z,19.20
2018-10-12T06:38:14.248Z,19.20
2018-10-12T06:40:41.720Z,19.40
2018-10-12T06:43:09.221Z,19.10
2018-10-12T06:45:36.723Z,18.60
2018-10-12T06:48:04.181Z,18.70
2018-10-12T06:50:31.742Z,18.90
2018-10-12T06:52:59.265Z,18.90
2018-10-12T06:55:26.818Z,18.50
2018-10-12T06:57:54.366Z,19.10
2018-10-12T07:00:21.985Z,19.80
2018-10-12T07:02:49.597Z,20.10
2018-10-12T07:05:17.171Z,20.50
2018-10-12T07:07:44.966Z,20.90
2018-10-12T07:10:12.493Z,21.20
2018-10-12T07:12:39.974Z,21.40
2018-10-12T07:15:07.780Z,21.60
2018-10-12T07:17:35.173Z,21.60
2018-10-12T07:20:02.694Z,21.60
2018-10-12T07:22:30.188Z,20.90
2018-10-12T07:24:57.653Z,20.80
2018-10-12T07:27:25.103Z,20.90
2018-10-12T07:29:52.625Z,21.20
2018-10-12T07:32:20.053Z,21.30
2018-10-12T07:34:47.545Z,21.40
2018-10-12T07:37:15.055Z,21.50
2018-10-12T07:39:42.491Z,21.50
2018-10-12T07:42:09.956Z,21.40
2018-10-12T07:44:37.470Z,21.10
2018-10-12T07:47:05.005Z,21.10
2018-10-12T07:49:32.478Z,21.00
2018-10-12T07:51:59.967Z,20.80
2018-10-12T07:54:27.385Z,20.30
2018-10-12T07:56:58.277Z,20.00
2018-10-12T07:59:25.710Z,19.80
2018-10-12T08:01:53.143Z,19.90
2018-10-12T08:04:20.649Z,20.10
2018-10-12T08:06:48.165Z,20.00
2018-10-12T08:09:15.590Z,20.10
2018-10-12T08:11:43.115Z,20.30
2018-10-12T08:14:10.581Z,20.50
2018-10-12T08:16:38.086Z,20.60
2018-10-12T08:19:06.573Z,20.60
2018-10-12T08:21:34.027Z,20.80
2018-10-12T08:24:01.600Z,21.00
2018-10-12T08:26:29.142Z,21.00
2018-10-12T08:28:56.666Z,21.00
2018-10-12T08:31:24.231Z,21.00
2018-10-12T08:33:51.729Z,20.80
2018-10-12T08:36:19.234Z,20.90
2018-10-12T08:38:46.672Z,21.10
2018-10-12T08:41:14.166Z,21.90
2018-10-12T08:43:41.606Z,23.40
2018-10-12T08:46:09.114Z,25.80
2018-10-12T08:48:36.663Z,27.70
2018-10-12T08:51:04.115Z,27.70
2018-10-12T08:53:31.544Z,26.20
2018-10-12T08:55:59.081Z,26.00
2018-10-12T08:58:26.625Z,26.30
2018-10-12T09:00:54.110Z,25.80
2018-10-12T09:03:21.651Z,24.90
2018-10-12T09:05:49.103Z,24.40
2018-10-12T09:08:16.639Z,24.70
2018-10-12T09:10:44.127Z,24.40
2018-10-12T09:13:11.670Z,23.60
2018-10-12T09:15:39.153Z,22.90
2018-10-12T09:18:06.616Z,22.70
2018-10-12T09:20:34.503Z,22.50
2018-10-12T09:23:01.560Z,22.30
2018-10-12T09:25:29.134Z,22.10
2018-10-12T09:27:56.794Z,21.90
2018-10-12T09:30:24.379Z,22.00
2018-10-12T09:32:51.822Z,22.00
2018-10-12T09:35:19.363Z,22.00
2018-10-12T09:37:46.807Z,22.00
2018-10-12T09:40:14.517Z,22.20
2018-10-12T09:42:41.957Z,22.20
2018-10-12T09:45:09.476Z,22.30
2018-10-12T09:47:37.102Z,22.40
2018-10-12T09:50:04.688Z,22.40
2018-10-12T09:52:32.170Z,22.40
2018-10-12T09:54:59.668Z,22.50
2018-10-12T09:57:32.981Z,22.60
2018-10-12T10:00:00.455Z,22.70
2018-10-12T10:02:33.568Z,22.80
2018-10-12T10:05:07.200Z,22.80
2018-10-12T10:07:34.906Z,22.80
2018-10-12T10:10:02.334Z,22.80
2018-10-12T10:12:29.855Z,22.80
2018-10-12T10:14:57.427Z,22.90
2018-10-12T10:17:24.957Z,22.90
2018-10-12T10:19:52.466Z,22.90
2018-10-12T10:22:19.987Z,22.90
2018-10-12T10:24:47.539Z,23.00
2018-10-12T10:27:15.134Z,22.90
2018-10-12T10:29:42.654Z,23.00
2018-10-12T10:32:10.308Z,23.00
2018-10-12T10:34:37.770Z,23.00
2018-10-12T10:37:05.689Z,23.20
2018-10-12T10:39:33.202Z,23.30
2018-10-12T10:42:00.645Z,23.30
2018-10-12T10:44:28.127Z,23.30
2018-10-12T10:46:55.631Z,23.30
2018-10-12T10:49:23.178Z,23.30
2018-10-12T10:51:50.638Z,23.80
2018-10-12T10:54:18.134Z,24.20
2018-10-12T10:56:45.754Z,24.00
2018-10-12T10:59:13.242Z,26.20
2018-10-12T11:01:40.715Z,31.00
2018-10-12T11:04:08.363Z,33.50
2018-10-12T11:06:35.816Z,34.70
2018-10-12T11:09:05.002Z,34.90
2018-10-12T11:11:32.481Z,35.30
2018-10-12T11:13:59.899Z,35.60
2018-10-12T11:16:27.502Z,35.80
2018-10-12T11:18:55.004Z,36.20
2018-10-12T11:21:22.435Z,36.10
2018-10-12T11:23:49.850Z,34.10
2018-10-12T11:26:17.364Z,31.00
2018-10-12T11:28:44.946Z,28.60
2018-10-12T11:31:12.414Z,27.00
2018-10-12T11:33:39.854Z,26.20
2018-10-12T11:36:07.300Z,25.80
2018-10-12T11:38:34.771Z,25.60
2018-10-12T11:41:02.242Z,25.30
2018-10-12T11:43:32.989Z,25.30
2018-10-12T11:46:00.877Z,25.20
2018-10-12T11:48:28.530Z,25.00
2018-10-12T11:50:55.994Z,25.10
2018-10-12T11:53:23.462Z,25.10
2018-10-12T11:55:50.930Z,25.00
2018-10-12T11:58:18.438Z,25.20
2018-10-12T12:00:45.914Z,25.80
2018-10-12T12:03:13.364Z,26.10
2018-10-12T12:05:40.852Z,25.40
2018-10-12T12:08:09.074Z,24.80
2018-10-12T12:10:36.543Z,24.60
2018-10-12T12:13:04.034Z,24.40
2018-10-12T12:15:31.487Z,24.50
2018-10-12T12:17:59.133Z,24.70
2018-10-12T12:20:26.657Z,24.80
2018-10-12T12:22:54.118Z,24.70
2018-10-12T12:25:21.558Z,24.70
2018-10-12T12:27:49.074Z,24.70
2018-10-12T12:30:16.516Z,24.70
2018-10-12T12:32:43.962Z,24.90
2018-10-12T12:35:11.603Z,25.20
2018-10-12T12:37:38.859Z,25.10
2018-10-12T12:40:06.369Z,24.90
2018-10-12T12:42:33.806Z,24.90
2018-10-12T12:45:01.305Z,24.80
2018-10-12T12:47:28.934Z,24.70
2018-10-12T12:49:56.317Z,24.80
2018-10-12T12:52:23.753Z,24.80
2018-10-12T12:54:51.336Z,24.80
2018-10-12T12:57:18.698Z,24.80
2018-10-12T12:59:46.152Z,25.00
2018-10-12T13:02:13.787Z,24.80
2018-10-12T13:04:41.208Z,24.60
2018-10-12T13:07:08.703Z,24.50
2018-10-12T13:09:36.182Z,24.40
2018-10-12T13:12:03.705Z,24.40
2018-10-12T13:14:31.126Z,24.50
2018-10-12T13:16:58.558Z,24.80
2018-10-12T13:19:26.002Z,25.00
2018-10-12T13:21:53.512Z,25.20
2018-10-12T13:24:20.962Z,25.50
2018-10-12T13:26:48.415Z,27.90
2018-10-12T13:29:15.849Z,30.50
2018-10-12T13:31:43.448Z,30.60
2018-10-12T13:34:10.882Z,32.60
2018-10-12T13:36:38.394Z,34.80
2018-10-12T13:39:08.371Z,36.00
2018-10-12T13:41:36.216Z,37.30
2018-10-12T13:44:04.033Z,38.20
2018-10-12T13:46:31.553Z,38.40
2018-10-12T13:48:59.080Z,38.50
2018-10-12T13:51:26.535Z,38.10
2018-10-12T13:53:54.373Z,37.90
2018-10-12T13:56:21.858Z,37.20
2018-10-12T13:58:49.372Z,36.80
2018-10-12T14:01:16.806Z,36.70
2018-10-12T14:03:44.306Z,34.50
2018-10-12T14:06:11.767Z,31.60
2018-10-12T14:08:39.331Z,29.50
2018-10-12T14:11:06.869Z,28.20
2018-10-12T14:13:34.486Z,27.30
2018-10-12T14:16:01.998Z,26.80
2018-10-12T14:18:29.510Z,26.40
2018-10-12T14:20:56.951Z,26.00
2018-10-12T14:23:24.410Z,25.70
2018-10-12T14:25:51.888Z,25.40
2018-10-12T14:28:19.373Z,25.20
2018-10-12T14:30:46.853Z,25.00
2018-10-12T14:33:14.279Z,24.80
2018-10-12T14:35:41.772Z,24.80
2018-10-12T14:38:09.203Z,24.90
2018-10-12T14:40:36.676Z,25.00
2018-10-12T14:43:04.181Z,25.10
2018-10-12T14:45:31.835Z,25.10
2018-10-12T14:47:59.317Z,25.10
2018-10-12T14:50:26.743Z,25.00
2018-10-12T14:52:54.298Z,25.00
2018-10-12T14:55:21.741Z,24.90
2018-10-12T14:57:49.193Z,24.80
2018-10-12T15:00:16.608Z,24.80
2018-10-12T15:02:44.105Z,24.80
2018-10-12T15:05:11.519Z,24.80
2018-10-12T15:07:39.012Z,24.90
2018-10-12T15:10:06.495Z,24.80
2018-10-12T15:12:34.006Z,24.70
2018-10-12T15:15:12.022Z,24.70
2018-10-12T15:17:39.552Z,24.60
2018-10-12T15:20:07.120Z,24.60
2018-10-12T15:22:34.576Z,24.50
2018-10-12T15:25:02.048Z,24.50
2018-10-12T15:27:29.493Z,24.50
2018-10-12T15:29:56.976Z,24.40
2018-10-12T15:32:24.393Z,24.60
2018-10-12T15:34:51.901Z,24.50
2018-10-12T15:37:19.382Z,24.40
2018-10-12T15:39:46.795Z,24.30
2018-10-12T15:42:14.320Z,24.20
2018-10-12T15:44:41.827Z,24.10
2018-10-12T15:47:09.310Z,24.00
2018-10-12T15:49:36.807Z,24.00
2018-10-12T15:52:04.277Z,24.00
2018-10-12T15:54:31.818Z,24.00
2018-10-12T15:56:59.257Z,23.90
2018-10-12T15:59:26.749Z,23.80
2018-10-12T16:01:54.198Z,23.70
2018-10-12T16:04:21.631Z,23.60
2018-10-12T16:06:49.183Z,23.50
2018-10-12T16:09:16.626Z,23.40
2018-10-12T16:11:44.157Z,23.30
2018-10-12T16:14:11.686Z,23.20
2018-10-12T16:16:39.202Z,23.10
2018-10-12T16:19:06.915Z,23.00
2018-10-12T16:21:34.367Z,22.90
2018-10-12T16:24:07.698Z,23.00
2018-10-12T16:26:35.336Z,23.10
2018-10-12T16:29:02.878Z,23.00
2018-10-12T16:31:30.319Z,23.20
2018-10-12T16:33:57.932Z,23.20
2018-10-12T16:36:25.492Z,23.10
2018-10-12T16:38:52.996Z,23.20
2018-10-12T16:41:20.553Z,23.20
2018-10-12T16:43:48.035Z,23.30
2018-10-12T16:46:15.603Z,23.30
2018-10-12T16:48:43.096Z,23.30
2018-10-12T16:51:10.592Z,23.40
2018-10-12T16:53:38.066Z,23.40
2018-10-12T16:56:05.562Z,23.20
2018-10-12T16:58:33.053Z,23.20
2018-10-12T17:01:00.533Z,23.00
2018-10-12T17:03:28.815Z,22.80
2018-10-12T17:05:56.397Z,22.80
2018-10-12T17:08:23.856Z,22.80
2018-10-12T17:10:51.318Z,22.70
2018-10-12T17:13:18.838Z,22.80
2018-10-12T17:15:46.290Z,23.00
2018-10-12T17:18:13.798Z,22.70
2018-10-12T17:20:42.542Z,22.60
2018-10-12T17:23:11.701Z,22.40
2018-10-12T17:25:39.198Z,21.90
2018-10-12T17:28:06.666Z,21.80
2018-10-12T17:30:34.148Z,22.00
2018-10-12T17:33:01.551Z,22.10
2018-10-12T17:35:29.222Z,22.00
2018-10-12T17:37:56.702Z,21.90
2018-10-12T17:40:24.177Z,22.10
2018-10-12T17:42:51.674Z,22.00
2018-10-12T17:45:19.270Z,22.10
2018-10-12T17:47:46.742Z,22.00
2018-10-12T17:50:14.275Z,22.10
2018-10-12T17:52:42.589Z,22.10
2018-10-12T17:55:10.066Z,22.20
2018-10-12T17:57:37.503Z,22.10
2018-10-12T18:00:06.231Z,22.30
2018-10-12T18:02:33.713Z,22.30
2018-10-12T18:05:01.435Z,22.10
2018-10-12T18:07:28.976Z,22.30
2018-10-12T18:09:57.282Z,22.50
2018-10-12T18:12:24.824Z,22.70
2018-10-12T18:14:52.379Z,22.70
2018-10-12T18:17:20.003Z,22.40
2018-10-12T18:19:47.596Z,22.50
2018-10-12T18:22:15.035Z,22.60
2018-10-12T18:24:42.618Z,22.70
2018-10-12T18:27:10.100Z,22.80
2018-10-12T18:29:37.596Z,22.80
2018-10-12T18:32:05.115Z,22.40
2018-10-12T18:34:32.591Z,21.60
2018-10-12T18:37:00.137Z,21.50
2018-10-12T18:39:28.151Z,21.20
2018-10-12T18:41:55.607Z,21.10
2018-10-12T18:44:23.194Z,21.00
2018-10-12T18:46:51.538Z,20.90
2018-10-12T18:49:19.003Z,21.10
2018-10-12T18:51:46.616Z,21.20
2018-10-12T18:54:14.272Z,21.60
2018-10-12T18:56:41.779Z,21.70
2018-10-12T18:59:09.402Z,21.70
2018-10-12T19:01:36.946Z,21.60
2018-10-12T19:04:04.467Z,21.80
2018-10-12T19:06:31.961Z,22.00
2018-10-12T19:08:59.451Z,21.50
2018-10-12T19:11:26.946Z,21.60
2018-10-12T19:13:54.521Z,21.60
2018-10-12T19:16:21.925Z,21.40
2018-10-12T19:18:49.416Z,21.20
2018-10-12T19:21:16.934Z,21.10
2018-10-12T19:23:44.549Z,21.20
2018-10-12T19:26:11.914Z,21.30
2018-10-12T19:28:39.431Z,21.20
2018-10-12T19:31:07.615Z,21.00
2018-10-12T19:33:35.832Z,21.00
2018-10-12T19:36:03.373Z,20.80
2018-10-12T19:38:30.952Z,20.80
2018-10-12T19:40:58.424Z,20.80
2018-10-12T19:43:25.916Z,20.60
2018-10-12T19:45:53.423Z,20.50
2018-10-12T19:48:20.933Z,20.40
2018-10-12T19:50:48.475Z,20.20
2018-10-12T19:53:16.123Z,20.20
2018-10-12T19:55:43.639Z,20.10
2018-10-12T19:58:11.195Z,20.20
2018-10-12T20:00:38.706Z,20.10
2018-10-12T20:03:06.354Z,20.00
2018-10-12T20:05:33.944Z,20.10
2018-10-12T20:08:01.555Z,20.40
2018-10-12T20:10:29.226Z,20.60
2018-10-12T20:12:56.723Z,20.70
2018-10-12T20:15:24.227Z,20.60
2018-10-12T20:17:51.992Z,20.80
2018-10-12T20:20:19.811Z,21.20
2018-10-12T20:22:47.527Z,21.30
2018-10-12T20:25:15.140Z,21.40
2018-10-12T20:27:42.629Z,21.20
2018-10-12T20:30:10.160Z,21.40
2018-10-12T20:32:37.685Z,21.20
2018-10-12T20:35:05.326Z,21.30
2018-10-12T20:37:32.815Z,21.50
2018-10-12T20:40:00.307Z,21.00
2018-10-12T20:42:27.794Z,20.60
2018-10-12T20:44:55.265Z,20.30
2018-10-12T20:47:22.755Z,19.90
2018-10-12T20:49:50.969Z,19.80
2018-10-12T20:52:18.469Z,19.70
2018-10-12T20:54:45.960Z,19.80
2018-10-12T20:57:13.507Z,19.90
2018-10-12T20:59:40.986Z,20.20
2018-10-12T21:02:08.497Z,20.50
2018-10-12T21:04:36.028Z,21.00
2018-10-12T21:07:03.666Z,21.30
2018-10-12T21:09:31.181Z,21.40
2018-10-12T21:11:58.682Z,21.40
2018-10-12T21:14:26.148Z,21.50
2018-10-12T21:16:53.634Z,21.60
2018-10-12T21:19:21.138Z,21.70
2018-10-12T21:21:48.670Z,21.60
2018-10-12T21:24:16.134Z,21.20
2018-10-12T21:26:43.638Z,21.10
2018-10-12T21:29:11.073Z,21.10
2018-10-12T21:31:38.555Z,21.10
2018-10-12T21:34:06.046Z,21.10
2018-10-12T21:36:33.550Z,21.10
2018-10-12T21:39:01.031Z,20.90
2018-10-12T21:41:28.485Z,20.80
2018-10-12T21:43:55.935Z,20.60
2018-10-12T21:46:23.433Z,20.30
2018-10-12T21:48:50.911Z,20.20
2018-10-12T21:51:18.383Z,20.30
2018-10-12T21:53:45.806Z,20.50
2018-10-12T21:56:13.254Z,20.50
2018-10-12T21:58:40.698Z,20.60
2018-10-12T22:01:08.192Z,20.40
2018-10-12T22:03:36.463Z,20.20
2018-10-12T22:06:04.176Z,20.20
2018-10-12T22:08:37.270Z,20.20
2018-10-12T22:11:05.346Z,20.30
2018-10-12T22:13:33.034Z,20.50
2018-10-12T22:16:00.511Z,20.70
2018-10-12T22:18:28.021Z,20.70
2018-10-12T22:20:55.443Z,20.80
2018-10-12T22:23:22.887Z,20.70
2018-10-12T22:25:50.438Z,20.90
2018-10-12T22:28:17.843Z,20.90
2018-10-12T22:30:45.418Z,21.00
2018-10-12T22:33:12.928Z,20.90
2018-10-12T22:35:40.413Z,20.80
2018-10-12T22:38:07.874Z,20.90
2018-10-12T22:40:35.341Z,21.00
2018-10-12T22:43:02.816Z,20.90
2018-10-12T22:45:30.246Z,21.00
2018-10-12T22:47:57.720Z,20.60
2018-10-12T22:50:25.160Z,20.40
2018-10-12T22:52:52.709Z,20.30
2018-10-12T22:55:20.166Z,20.50
2018-10-12T22:57:47.617Z,20.90
2018-10-12T23:00:15.082Z,20.80
2018-10-12T23:02:42.542Z,20.80
2018-10-12T23:05:10.839Z,20.70
2018-10-12T23:07:38.306Z,20.50
2018-10-12T23:10:06.361Z,20.40
2018-10-12T23:12:33.796Z,20.70
2018-10-12T23:15:01.246Z,21.00
2018-10-12T23:17:28.683Z,21.10
2018-10-12T23:19:56.178Z,21.00
2018-10-12T23:22:23.598Z,20.60
2018-10-12T23:24:51.055Z,20.00
2018-10-12T23:27:18.486Z,20.10
2018-10-12T23:29:45.971Z,20.10
2018-10-12T23:32:13.509Z,20.20
2018-10-12T23:34:40.985Z,20.00
2018-10-12T23:37:08.517Z,20.00
2018-10-12T23:39:36.033Z,20.10
2018-10-12T23:42:03.498Z,20.00
2018-10-12T23:44:30.958Z,20.00
2018-10-12T23:46:58.374Z,19.90
2018-10-12T23:49:25.834Z,19.60
2018-10-12T23:51:53.309Z,19.20
2018-10-12T23:54:20.898Z,19.00
2018-10-12T23:56:48.323Z,18.90
2018-10-12T23:59:15.887Z,18.80
